createdAt,value
2019-04-23T00:01:23.840Z,91.63
2019-04-23T00:03:43.536Z,79.35
2019-04-23T00:06:21.689Z,81.08
2019-04-23T00:08:50.139Z,92.57
2019-04-23T00:11:24.068Z,58.60
2019-04-23T00:13:49.871Z,52.75
2019-04-23T00:16:26.391Z,82.40
2019-04-23T00:19:15.282Z,73.85
2019-04-23T00:26:36.625Z,132.10
2019-04-23T00:29:21.108Z,169.75
2019-04-23T00:31:36.292Z,95.95
2019-04-23T00:34:10.572Z,90.55
2019-04-23T00:36:44.514Z,89.58
2019-04-23T00:39:11.163Z,56.80
2019-04-23T00:41:47.476Z,116.75
2019-04-23T00:44:15.181Z,123.20
2019-04-23T00:46:48.656Z,97.90
2019-04-23T00:49:19.843Z,90.55
2019-04-23T00:51:49.729Z,70.30
2019-04-23T00:56:55.428Z,71.15
2019-04-23T00:59:26.923Z,75.22
2019-04-23T01:01:58.006Z,84.72
2019-04-23T01:04:32.780Z,101.18
2019-04-23T01:06:58.323Z,87.55
2019-04-23T01:09:42.276Z,61.05
2019-04-23T01:12:07.454Z,69.82
2019-04-23T01:14:32.587Z,85.75
2019-04-23T01:17:17.236Z,73.90
2019-04-23T01:19:57.713Z,77.40
2019-04-23T01:22:10.614Z,71.90
2019-04-23T01:24:46.691Z,75.20
2019-04-23T01:30:22.203Z,78.42
2019-04-23T01:33:02.605Z,76.60
2019-04-23T01:35:20.358Z,90.77
2019-04-23T01:37:55.690Z,89.30
2019-04-23T01:40:26.599Z,83.22
2019-04-23T01:42:58.684Z,90.12
2019-04-23T01:45:27.302Z,85.03
2019-04-23T01:47:59.709Z,85.72
2019-04-23T01:55:45.453Z,73.72
2019-04-23T02:00:45.163Z,88.50
2019-04-23T02:03:18.185Z,77.67
2019-04-23T02:05:48.347Z,86.70
2019-04-23T02:08:12.865Z,88.67
2019-04-23T02:11:00.602Z,80.07
2019-04-23T02:13:28.128Z,89.47
2019-04-23T02:15:55.794Z,96.12
2019-04-23T02:18:29.565Z,107.47
2019-04-23T02:21:02.443Z,106.65
2019-04-23T02:23:39.215Z,104.65
2019-04-23T02:26:10.862Z,96.75
2019-04-23T02:28:46.311Z,100.18
2019-04-23T02:33:49.826Z,100.60
2019-04-23T02:36:18.406Z,103.78
2019-04-23T02:41:26.556Z,117.13
2019-04-23T02:44:04.910Z,115.42
2019-04-23T02:46:15.194Z,111.45
2019-04-23T02:56:41.372Z,105.65
2019-04-23T03:01:54.894Z,93.35
2019-04-23T03:09:12.858Z,110.22
2019-04-23T03:14:15.870Z,108.30
2019-04-23T03:16:54.997Z,121.13
2019-04-23T03:19:25.567Z,141.92
2019-04-23T03:21:57.618Z,139.18
2019-04-23T03:25:05.339Z,143.50
2019-04-23T03:27:22.899Z,115.75
2019-04-23T03:29:57.577Z,113.90
2019-04-23T03:37:33.948Z,109.15
2019-04-23T03:42:38.640Z,114.17
2019-04-23T03:45:08.400Z,110.42
2019-04-23T03:55:16.294Z,100.35
2019-04-23T04:00:33.186Z,101.87
2019-04-23T04:05:22.309Z,83.97
2019-04-23T04:10:16.194Z,84.03
2019-04-23T04:15:53.524Z,99.40
2019-04-23T04:18:06.729Z,89.77
2019-04-23T04:23:14.663Z,89.42
2019-04-23T04:30:38.811Z,93.92
2019-04-23T04:33:31.584Z,92.47
2019-04-23T04:36:00.702Z,88.85
2019-04-23T04:46:17.327Z,98.85
2019-04-23T04:48:33.429Z,92.42
2019-04-23T04:51:28.902Z,92.85
2019-04-23T04:56:21.344Z,87.97
2019-04-23T04:58:46.525Z,90.80
2019-04-23T05:01:16.475Z,78.52
2019-04-23T05:03:58.458Z,87.33
2019-04-23T05:08:54.500Z,83.87
2019-04-23T05:13:51.562Z,79.45
2019-04-23T05:19:16.113Z,76.80
2019-04-23T05:21:43.152Z,91.40
2019-04-23T05:24:06.611Z,83.62
2019-04-23T05:29:14.553Z,74.42
2019-04-23T05:31:34.159Z,76.92
2019-04-23T05:34:07.986Z,81.35
2019-04-23T05:36:49.898Z,90.00
2019-04-23T05:39:20.836Z,87.67
2019-04-23T05:41:49.953Z,90.03
2019-04-23T05:44:21.173Z,90.85
2019-04-23T05:47:14.989Z,93.87
2019-04-23T05:54:30.045Z,84.25
2019-04-23T05:56:55.296Z,88.05
2019-04-23T05:59:42.834Z,87.50
2019-04-23T06:01:57.021Z,86.92
2019-04-23T06:04:32.480Z,73.47
2019-04-23T06:09:30.360Z,73.37
2019-04-23T06:12:18.742Z,75.45
2019-04-23T06:14:44.521Z,74.37
2019-04-23T06:19:43.196Z,82.17
2019-04-23T06:24:45.047Z,75.92
2019-04-23T06:27:18.242Z,85.55
2019-04-23T06:29:43.227Z,75.80
2019-04-23T06:32:19.350Z,76.75
2019-04-23T06:34:54.988Z,75.30
2019-04-23T06:37:27.070Z,74.22
2019-04-23T06:39:55.058Z,77.75
2019-04-23T06:42:22.858Z,78.45
2019-04-23T06:47:27.780Z,74.90
2019-04-23T06:49:59.342Z,71.92
2019-04-23T06:52:25.209Z,57.48
2019-04-23T06:55:11.516Z,58.10
2019-04-23T06:57:36.747Z,65.85
2019-04-23T07:00:08.012Z,71.65
2019-04-23T07:02:49.535Z,68.37
2019-04-23T07:05:20.601Z,65.60
2019-04-23T07:10:21.933Z,63.35
2019-04-23T07:12:52.292Z,63.40
2019-04-23T07:15:33.249Z,65.28
2019-04-23T07:17:47.756Z,62.05
2019-04-23T07:20:27.365Z,63.00
2019-04-23T07:22:56.904Z,60.67
2019-04-23T07:25:29.663Z,62.88
2019-04-23T07:27:59.015Z,49.20
2019-04-23T07:30:33.410Z,47.62
2019-04-23T07:33:11.557Z,41.60
2019-04-23T07:35:45.250Z,42.27
2019-04-23T07:38:40.646Z,29.02
2019-04-23T07:41:20.913Z,36.40
2019-04-23T07:44:00.985Z,46.65
2019-04-23T07:46:56.280Z,42.35
2019-04-23T07:49:10.179Z,26.70
2019-04-23T07:51:48.201Z,31.52
2019-04-23T07:56:57.883Z,31.12
2019-04-23T07:59:27.725Z,30.23
2019-04-23T08:01:53.296Z,28.30
2019-04-23T08:04:33.554Z,26.35
2019-04-23T08:06:55.953Z,25.65
2019-04-23T08:09:24.600Z,21.07
2019-04-23T08:11:56.159Z,21.25
2019-04-23T08:14:36.138Z,21.93
2019-04-23T08:16:58.217Z,26.80
2019-04-23T08:19:42.495Z,32.33
2019-04-23T08:22:12.814Z,32.67
2019-04-23T08:24:45.319Z,35.65
2019-04-23T08:27:24.071Z,41.65
2019-04-23T08:29:41.075Z,26.05
2019-04-23T08:32:21.470Z,26.07
2019-04-23T08:34:51.771Z,26.50
2019-04-23T08:37:26.595Z,24.23
2019-04-23T08:42:45.357Z,24.75
2019-04-23T08:45:28.542Z,24.43
2019-04-23T08:47:54.330Z,28.05
2019-04-23T08:50:24.864Z,34.45
2019-04-23T08:52:52.177Z,30.27
2019-04-23T08:57:47.426Z,25.05
2019-04-23T09:00:33.102Z,26.05
2019-04-23T09:03:00.208Z,22.20
2019-04-23T09:08:07.136Z,19.90
2019-04-23T09:13:33.234Z,20.48
2019-04-23T09:20:35.865Z,21.85
2019-04-23T09:23:13.217Z,28.52
2019-04-23T09:28:31.141Z,29.35
2019-04-23T09:30:57.801Z,27.02
2019-04-23T09:33:31.241Z,27.25
2019-04-23T09:36:06.806Z,25.05
2019-04-23T09:38:50.244Z,25.97
2019-04-23T09:43:57.876Z,23.35
2019-04-23T09:46:23.407Z,19.80
2019-04-23T09:49:15.512Z,23.85
2019-04-23T09:51:31.343Z,23.87
2019-04-23T09:54:02.918Z,21.68
2019-04-23T09:56:37.669Z,21.95
2019-04-23T09:59:08.968Z,19.23
2019-04-23T10:01:29.100Z,22.73
2019-04-23T10:03:57.606Z,21.10
2019-04-23T10:06:20.819Z,27.73
2019-04-23T10:08:50.036Z,24.00
2019-04-23T10:11:19.673Z,20.57
2019-04-23T10:13:48.407Z,23.22
2019-04-23T10:16:23.312Z,20.62
2019-04-23T10:18:57.379Z,24.07
2019-04-23T10:21:27.196Z,25.27
2019-04-23T10:23:57.204Z,23.12
2019-04-23T10:26:28.288Z,24.82
2019-04-23T10:29:07.624Z,26.62
2019-04-23T10:31:37.621Z,19.60
2019-04-23T10:34:08.255Z,18.67
2019-04-23T10:36:38.721Z,32.58
2019-04-23T10:39:17.541Z,23.27
2019-04-23T10:41:45.378Z,25.20
2019-04-23T10:44:14.568Z,21.37
2019-04-23T10:47:27.150Z,22.32
2019-04-23T10:49:59.783Z,18.87
2019-04-23T10:55:00.043Z,19.35
2019-04-23T10:57:25.074Z,23.60
2019-04-23T10:59:58.626Z,19.82
2019-04-23T11:02:47.358Z,21.00
2019-04-23T11:05:28.949Z,23.75
2019-04-23T11:07:45.450Z,22.50
2019-04-23T11:10:11.217Z,19.75
2019-04-23T11:13:02.549Z,19.25
2019-04-23T11:15:50.692Z,23.38
2019-04-23T11:17:59.492Z,19.57
2019-04-23T11:23:06.500Z,24.30
2019-04-23T11:25:57.711Z,20.90
2019-04-23T11:28:22.616Z,22.67
2019-04-23T11:30:55.276Z,19.60
2019-04-23T11:33:51.005Z,22.10
2019-04-23T11:36:35.545Z,28.07
2019-04-23T11:41:15.103Z,21.62
2019-04-23T11:43:37.710Z,18.17
2019-04-23T11:53:50.972Z,17.95
2019-04-23T11:56:46.058Z,26.50
2019-04-23T11:58:49.530Z,23.25
2019-04-23T12:01:42.809Z,23.30
2019-04-23T12:04:05.431Z,17.98
2019-04-23T12:06:51.080Z,23.38
2019-04-23T12:09:09.925Z,17.35
2019-04-23T12:14:39.126Z,21.00
2019-04-23T12:17:22.687Z,20.50
2019-04-23T12:22:18.062Z,16.35
2019-04-23T12:25:03.450Z,19.80
2019-04-23T12:27:25.368Z,22.87
2019-04-23T12:29:49.150Z,22.50
2019-04-23T12:40:15.390Z,22.30
2019-04-23T12:42:54.089Z,20.90
2019-04-23T12:45:20.626Z,20.08
2019-04-23T12:52:47.675Z,23.42
2019-04-23T12:55:23.408Z,24.20
2019-04-23T12:57:57.389Z,20.08
2019-04-23T13:02:52.009Z,20.92
2019-04-23T13:05:28.769Z,18.62
2019-04-23T13:08:25.290Z,18.45
2019-04-23T13:10:44.063Z,20.72
2019-04-23T13:13:18.904Z,19.37
2019-04-23T13:15:40.675Z,22.80
2019-04-23T13:18:23.618Z,19.32
2019-04-23T13:20:51.191Z,20.97
2019-04-23T13:23:30.768Z,20.80
2019-04-23T13:26:13.573Z,20.92
2019-04-23T13:34:19.537Z,30.95
2019-04-23T13:36:44.881Z,22.40
2019-04-23T13:39:18.659Z,24.92
2019-04-23T13:41:46.158Z,22.67
2019-04-23T13:44:19.607Z,22.75
2019-04-23T13:46:52.591Z,31.62
2019-04-23T13:49:28.459Z,23.73
2019-04-23T13:51:58.425Z,20.57
2019-04-23T13:54:46.634Z,24.07
2019-04-23T14:02:17.043Z,22.80
2019-04-23T14:04:46.813Z,19.73
2019-04-23T14:07:17.591Z,25.32
2019-04-23T14:10:00.555Z,33.48
2019-04-23T14:12:22.247Z,23.70
2019-04-23T14:15:02.286Z,22.73
2019-04-23T14:17:37.966Z,25.68
2019-04-23T14:20:03.807Z,23.60
2019-04-23T14:22:51.319Z,23.80
2019-04-23T14:32:35.256Z,23.73
2019-04-23T14:37:57.984Z,21.07
2019-04-23T14:40:21.950Z,23.90
2019-04-23T14:42:56.097Z,33.85
2019-04-23T14:45:44.239Z,22.90
2019-04-23T14:47:59.169Z,26.15
2019-04-23T14:50:34.841Z,20.08
2019-04-23T14:53:09.720Z,29.80
2019-04-23T14:58:17.670Z,28.47
2019-04-23T15:00:41.609Z,22.55
2019-04-23T15:03:20.245Z,21.87
2019-04-23T15:05:53.732Z,25.45
2019-04-23T15:08:15.611Z,21.23
2019-04-23T15:10:58.053Z,23.18
2019-04-23T15:13:16.892Z,24.30
2019-04-23T15:15:55.622Z,23.10
2019-04-23T15:18:23.945Z,29.23
2019-04-23T15:27:08.458Z,30.23
2019-04-23T15:27:13.487Z,25.57
2019-04-23T15:28:12.142Z,22.05
2019-04-23T15:31:22.403Z,26.52
2019-04-23T15:33:56.465Z,26.70
2019-04-23T15:43:52.221Z,26.12
2019-04-23T15:46:25.291Z,22.37
2019-04-23T15:49:05.652Z,31.70
2019-04-23T15:51:30.971Z,25.30
2019-04-23T15:53:57.013Z,36.42
2019-04-23T15:56:35.658Z,31.80
2019-04-23T16:01:31.962Z,41.50
2019-04-23T16:03:31.933Z,39.70
2019-04-23T16:06:04.708Z,40.67
2019-04-23T16:14:17.630Z,39.88
2019-04-23T16:19:44.934Z,47.48
2019-04-23T16:22:03.680Z,55.25
2019-04-23T16:24:24.895Z,46.73
2019-04-23T16:27:09.399Z,44.60
2019-04-23T16:32:15.337Z,70.67
2019-04-23T16:34:40.816Z,74.60
2019-04-23T16:39:58.350Z,102.70
2019-04-23T16:42:27.323Z,105.00
2019-04-23T16:47:26.499Z,140.77
2019-04-23T16:52:26.220Z,185.25
2019-04-23T16:55:00.554Z,167.47
2019-04-23T17:00:13.189Z,96.57
2019-04-23T17:03:02.668Z,56.58
2019-04-23T17:05:12.467Z,74.82
2019-04-23T17:07:36.279Z,68.95
2019-04-23T17:10:12.628Z,65.80
2019-04-23T17:12:46.923Z,64.80
2019-04-23T17:15:17.896Z,62.13
2019-04-23T17:17:49.913Z,65.92
2019-04-23T17:20:28.829Z,74.00
2019-04-23T17:22:59.550Z,68.47
2019-04-23T17:25:26.551Z,75.35
2019-04-23T17:30:37.341Z,68.25
2019-04-23T17:36:05.418Z,57.98
2019-04-23T17:38:37.691Z,77.20
2019-04-23T17:43:59.923Z,61.08
2019-04-23T17:46:26.928Z,61.15
2019-04-23T17:49:08.127Z,77.32
2019-04-23T17:51:51.978Z,85.05
2019-04-23T17:54:13.048Z,68.57
2019-04-23T17:56:51.160Z,67.30
2019-04-23T17:59:12.054Z,109.83
2019-04-23T18:01:54.257Z,95.75
2019-04-23T18:09:25.606Z,240.65
2019-04-23T18:11:53.429Z,317.98
2019-04-23T18:14:18.092Z,277.77
2019-04-23T18:16:57.457Z,58.35
2019-04-23T18:19:24.643Z,53.83
2019-04-23T18:22:15.561Z,70.35
2019-04-23T18:25:05.744Z,69.72
2019-04-23T18:27:33.771Z,45.23
2019-04-23T18:30:12.108Z,48.83
2019-04-23T18:33:12.476Z,60.40
2019-04-23T18:37:59.706Z,46.73
2019-04-23T18:40:28.592Z,44.05
2019-04-23T18:43:07.309Z,38.15
2019-04-23T18:45:39.089Z,43.83
2019-04-23T18:48:34.112Z,39.15
2019-04-23T18:50:53.692Z,44.05
2019-04-23T18:53:33.540Z,33.33
2019-04-23T18:58:36.592Z,33.78
2019-04-23T19:06:18.587Z,36.13
2019-04-23T19:11:37.113Z,36.33
2019-04-23T19:13:55.726Z,32.83
2019-04-23T19:16:24.589Z,33.55
2019-04-23T19:19:01.430Z,28.05
2019-04-23T19:21:47.354Z,33.78
2019-04-23T19:23:54.761Z,28.77
2019-04-23T19:26:55.238Z,30.50
2019-04-23T19:29:00.533Z,23.92
2019-04-23T19:31:50.657Z,28.87
2019-04-23T19:34:36.505Z,30.75
2019-04-23T19:37:45.752Z,28.30
2019-04-23T19:39:26.276Z,25.90
2019-04-23T19:42:02.028Z,24.52
2019-04-23T19:44:29.294Z,22.20
2019-04-23T19:47:09.532Z,28.12
2019-04-23T19:49:28.896Z,26.27
2019-04-23T20:02:07.377Z,26.62
2019-04-23T20:12:21.540Z,22.35
2019-04-23T20:17:37.759Z,22.22
2019-04-23T20:25:04.119Z,17.20
2019-04-23T20:27:25.770Z,25.37
2019-04-23T20:30:19.796Z,18.92
2019-04-23T20:38:15.380Z,19.77
2019-04-23T20:40:15.074Z,18.92
2019-04-23T20:42:48.188Z,18.10
2019-04-23T20:45:16.545Z,19.62
2019-04-23T20:48:05.001Z,17.05
2019-04-23T20:50:10.543Z,16.48
2019-04-23T20:52:47.606Z,20.72
2019-04-23T20:55:29.363Z,18.75
2019-04-23T20:58:07.232Z,17.15
2019-04-23T21:03:30.421Z,15.25
2019-04-23T21:05:43.092Z,18.55
2019-04-23T21:08:28.805Z,16.32
2019-04-23T21:10:51.045Z,22.20
2019-04-23T21:13:42.792Z,17.40
2019-04-23T21:15:54.573Z,20.10
2019-04-23T21:18:33.089Z,18.80
2019-04-23T21:21:06.338Z,19.40
2019-04-23T21:23:28.770Z,18.42
2019-04-23T21:26:08.191Z,17.42
2019-04-23T21:28:40.161Z,20.68
2019-04-23T21:41:50.948Z,17.80
2019-04-23T21:46:49.065Z,21.75
2019-04-23T21:49:26.969Z,18.17
2019-04-23T21:54:25.734Z,17.37
2019-04-23T21:56:48.267Z,19.40
2019-04-23T21:59:13.376Z,33.40
2019-04-23T22:01:55.824Z,16.82
2019-04-23T22:06:59.670Z,25.35
2019-04-23T22:12:16.920Z,19.07
2019-04-23T22:17:10.209Z,20.88
2019-04-23T22:19:38.351Z,25.10
2019-04-23T22:22:05.849Z,21.95
2019-04-23T22:24:48.282Z,17.73
2019-04-23T22:27:11.703Z,22.15
2019-04-23T22:29:44.696Z,22.02
2019-04-23T22:32:12.845Z,27.58
2019-04-23T22:34:58.837Z,20.80
2019-04-23T22:39:52.795Z,20.35
2019-04-23T22:42:36.683Z,29.65
2019-04-23T22:47:34.585Z,65.00
2019-04-23T22:52:31.487Z,31.62
2019-04-23T22:55:12.730Z,28.62
2019-04-23T22:58:01.918Z,30.23
2019-04-23T23:00:14.621Z,31.65
2019-04-23T23:05:53.532Z,53.00
2019-04-23T23:08:07.874Z,44.77
2019-04-23T23:10:46.151Z,48.58
2019-04-23T23:15:49.187Z,40.43
2019-04-23T23:23:18.142Z,28.35
2019-04-23T23:25:50.922Z,29.42
2019-04-23T23:31:02.000Z,35.65
2019-04-23T23:33:23.287Z,30.82
2019-04-23T23:35:58.878Z,34.98
2019-04-23T23:38:33.364Z,22.22
2019-04-23T23:43:33.885Z,26.05
2019-04-23T23:46:15.218Z,25.72
2019-04-23T23:48:35.941Z,29.82
2019-04-23T23:51:36.684Z,24.75
2019-04-23T23:56:17.379Z,24.82
2019-04-23T23:58:53.965Z,32.08
